createdAt,value
2022-11-23T00:01:36.307Z,99676.23
2022-11-23T00:05:09.375Z,99680.98
2022-11-23T00:08:47.489Z,99680.50
2022-11-23T00:12:24.480Z,99684.34
2022-11-23T00:16:07.197Z,99684.73
2022-11-23T00:19:40.092Z,99677.86
2022-11-23T00:23:17.795Z,99676.45
2022-11-23T00:26:55.296Z,99669.86
2022-11-23T00:30:32.997Z,99670.61
2022-11-23T00:34:10.803Z,99666.48
2022-11-23T00:37:48.406Z,99661.69
2022-11-23T00:41:27.432Z,99661.27
2022-11-23T00:45:04.326Z,99658.89
2022-11-23T00:48:43.127Z,99660.96
2022-11-23T00:52:19.119Z,99659.71
2022-11-23T00:55:58.005Z,99663.33
2022-11-23T00:59:34.804Z,99665.20
2022-11-23T01:03:12.437Z,99666.48
2022-11-23T01:06:50.040Z,99667.33
2022-11-23T01:10:27.743Z,99664.49
2022-11-23T01:14:05.856Z,99661.36
2022-11-23T01:17:43.253Z,99664.92
2022-11-23T01:21:20.737Z,99666.46
2022-11-23T01:24:58.602Z,99671.73
2022-11-23T01:28:38.108Z,99678.06
2022-11-23T01:32:13.942Z,99681.85
2022-11-23T01:35:51.570Z,99676.33
2022-11-23T01:39:29.662Z,99674.45
2022-11-23T01:43:26.229Z,99679.52
2022-11-23T01:46:44.788Z,99683.96
2022-11-23T01:50:22.387Z,99685.16
2022-11-23T01:54:04.904Z,99686.63
2022-11-23T01:57:46.310Z,99687.65
2022-11-23T02:01:16.415Z,99684.61
2022-11-23T02:04:54.548Z,99682.60
2022-11-23T02:08:31.731Z,99683.30
2022-11-23T02:12:13.017Z,99678.95
2022-11-23T02:15:46.522Z,99672.52
2022-11-23T02:19:34.909Z,99674.83
2022-11-23T02:23:04.597Z,99671.81
2022-11-23T02:26:39.632Z,99670.08
2022-11-23T02:30:18.265Z,99674.46
2022-11-23T02:33:54.735Z,99670.14
2022-11-23T02:37:32.949Z,99668.90
2022-11-23T02:41:10.141Z,99673.58
2022-11-23T02:45:02.899Z,99679.42
2022-11-23T02:48:26.169Z,99680.24
2022-11-23T02:52:04.176Z,99679.32
2022-11-23T02:55:40.754Z,99680.15
2022-11-23T02:59:19.277Z,99680.52
2022-11-23T03:02:56.369Z,99680.91
2022-11-23T03:06:34.277Z,99679.32
2022-11-23T03:10:11.878Z,99672.78
2022-11-23T03:13:49.482Z,99667.73
2022-11-23T03:17:28.318Z,99668.34
2022-11-23T03:21:08.884Z,99668.14
2022-11-23T03:24:42.491Z,99670.85
2022-11-23T03:28:20.296Z,99674.97
2022-11-23T03:31:57.899Z,99679.54
2022-11-23T03:35:35.811Z,99682.88
2022-11-23T03:39:13.614Z,99682.36
2022-11-23T03:42:51.010Z,99676.23
2022-11-23T03:46:28.512Z,99673.73
2022-11-23T03:50:07.340Z,99677.47
2022-11-23T03:53:44.124Z,99680.45
2022-11-23T03:57:21.780Z,99687.55
2022-11-23T04:00:59.971Z,99685.88
2022-11-23T04:04:37.236Z,99690.17
2022-11-23T04:08:14.836Z,99698.38
2022-11-23T04:12:11.690Z,99701.86
2022-11-23T04:15:30.245Z,99701.35
2022-11-23T04:19:08.258Z,99693.91
2022-11-23T04:22:45.552Z,99696.79
2022-11-23T04:26:23.567Z,99690.27
2022-11-23T04:30:01.165Z,99697.04
2022-11-23T04:33:38.868Z,99698.74
2022-11-23T04:37:16.369Z,99706.77
2022-11-23T04:40:54.278Z,99705.23
2022-11-23T04:44:31.980Z,99707.70
2022-11-23T04:48:09.788Z,99704.61
2022-11-23T04:51:47.185Z,99711.71
2022-11-23T04:55:25.095Z,99714.83
2022-11-23T04:59:02.900Z,99719.52
2022-11-23T05:02:40.501Z,99723.56
2022-11-23T05:06:18.205Z,99724.71
2022-11-23T05:09:56.936Z,99724.01
2022-11-23T05:13:34.046Z,99722.77
2022-11-23T05:17:12.381Z,99719.88
2022-11-23T05:20:49.022Z,99722.95
2022-11-23T05:24:26.520Z,99732.86
2022-11-23T05:28:30.160Z,99736.65
2022-11-23T05:31:42.033Z,99732.46
2022-11-23T05:35:29.998Z,99734.02
2022-11-23T05:38:58.361Z,99730.70
2022-11-23T05:42:35.552Z,99731.74
2022-11-23T05:46:12.847Z,99733.22
2022-11-23T05:49:51.166Z,99731.89
2022-11-23T05:53:28.359Z,99726.66
2022-11-23T05:57:05.778Z,99732.58
2022-11-23T06:00:43.670Z,99730.17
2022-11-23T06:04:21.161Z,99728.61
2022-11-23T06:07:59.073Z,99736.84
2022-11-23T06:11:37.290Z,99745.39
2022-11-23T06:15:14.380Z,99748.98
2022-11-23T06:18:52.288Z,99753.04
2022-11-23T06:22:29.761Z,99751.40
2022-11-23T06:26:07.388Z,99761.16
2022-11-23T06:29:46.970Z,99770.00
2022-11-23T06:33:23.001Z,99765.80
2022-11-23T06:37:00.604Z,99761.40
2022-11-23T06:40:38.103Z,99767.68
2022-11-23T06:44:16.012Z,99774.34
2022-11-23T06:47:56.895Z,99781.45
2022-11-23T06:51:31.421Z,99777.89
2022-11-23T06:55:09.533Z,99780.70
2022-11-23T06:58:46.829Z,99786.34
2022-11-23T07:02:24.331Z,99791.00
2022-11-23T07:06:08.792Z,99792.11
2022-11-23T07:09:41.056Z,99785.66
2022-11-23T07:13:17.751Z,99793.12
2022-11-23T07:16:55.581Z,99790.47
2022-11-23T07:20:34.271Z,99789.77
2022-11-23T07:24:10.860Z,99791.72
2022-11-23T07:27:48.702Z,99797.58
2022-11-23T07:31:26.403Z,99799.20
2022-11-23T07:35:04.705Z,99799.13
2022-11-23T07:38:41.911Z,99801.98
2022-11-23T07:42:42.863Z,99804.15
2022-11-23T07:45:57.619Z,99802.36
2022-11-23T07:49:34.618Z,99806.45
2022-11-23T07:53:12.187Z,99806.93
2022-11-23T07:56:49.858Z,99807.41
2022-11-23T08:00:29.144Z,99814.80
2022-11-23T08:04:05.504Z,99813.39
2022-11-23T08:07:43.241Z,99815.81
2022-11-23T08:11:22.448Z,99816.08
2022-11-23T08:14:58.308Z,99809.25
2022-11-23T08:18:36.626Z,99809.70
2022-11-23T08:22:15.919Z,99809.23
2022-11-23T08:26:13.586Z,99805.54
2022-11-23T08:29:30.353Z,99808.13
2022-11-23T08:33:08.270Z,99812.90
2022-11-23T08:36:45.353Z,99811.36
2022-11-23T08:40:25.414Z,99811.96
2022-11-23T08:43:59.841Z,99817.87
2022-11-23T08:47:37.750Z,99823.45
2022-11-23T08:51:15.248Z,99825.73
2022-11-23T08:54:53.156Z,99828.31
2022-11-23T08:58:31.474Z,99836.23
2022-11-23T09:02:12.450Z,99839.36
2022-11-23T09:05:46.370Z,99837.45
2022-11-23T09:09:23.870Z,99837.98
2022-11-23T09:13:01.501Z,99833.66
2022-11-23T09:16:39.278Z,99839.17
2022-11-23T09:20:16.908Z,99838.02
2022-11-23T09:23:54.893Z,99833.90
2022-11-23T09:27:32.187Z,99831.70
2022-11-23T09:31:10.096Z,99829.77
2022-11-23T09:34:48.012Z,99828.27
2022-11-23T09:38:51.525Z,99827.30
2022-11-23T09:42:32.598Z,99821.83
2022-11-23T09:45:55.117Z,99822.02
2022-11-23T09:49:22.701Z,99817.06
2022-11-23T09:53:13.530Z,99820.22
2022-11-23T09:56:38.969Z,99819.57
2022-11-23T10:00:22.379Z,99815.38
2022-11-23T10:03:51.585Z,99813.42
2022-11-23T10:07:34.850Z,99814.60
2022-11-23T10:11:12.624Z,99814.67
2022-11-23T10:14:57.804Z,99809.35
2022-11-23T10:18:37.272Z,99808.24
2022-11-23T10:22:10.446Z,99803.83
2022-11-23T10:25:52.666Z,99794.50
2022-11-23T10:29:36.304Z,99790.98
2022-11-23T10:32:52.807Z,99788.66
2022-11-23T10:36:30.615Z,99789.38
2022-11-23T10:40:29.617Z,99788.98
2022-11-23T10:43:48.786Z,99791.36
2022-11-23T10:47:50.424Z,99788.47
2022-11-23T10:51:19.556Z,99787.66
2022-11-23T10:54:49.580Z,99788.93
2022-11-23T10:58:28.819Z,99785.44
2022-11-23T11:02:18.406Z,99784.02
2022-11-23T11:09:20.374Z,99774.98
2022-11-23T11:13:42.850Z,99766.72
2022-11-23T11:16:53.212Z,99767.71
2022-11-23T11:20:35.119Z,99767.16
2022-11-23T11:24:26.338Z,99763.48
2022-11-23T11:27:52.073Z,99760.39
2022-11-23T11:31:55.985Z,99754.73
2022-11-23T11:35:29.995Z,99760.42
2022-11-23T11:39:15.032Z,99754.36
2022-11-23T11:42:38.920Z,99759.61
2022-11-23T11:49:45.963Z,99747.85
2022-11-23T11:53:23.102Z,99749.59
2022-11-23T11:57:25.860Z,99752.95
2022-11-23T12:00:44.810Z,99751.23
2022-11-23T12:04:24.666Z,99749.74
2022-11-23T12:08:26.184Z,99748.31
2022-11-23T12:11:37.514Z,99749.84
2022-11-23T12:19:17.750Z,99757.98
2022-11-23T12:22:46.298Z,99761.20
2022-11-23T12:26:45.400Z,99758.27
2022-11-23T12:30:16.582Z,99757.39
2022-11-23T12:33:55.485Z,99756.81
2022-11-23T12:37:41.893Z,99761.36
2022-11-23T12:41:07.744Z,99759.73
2022-11-23T12:44:59.185Z,99758.24
2022-11-23T12:48:21.520Z,99765.02
2022-11-23T12:52:17.932Z,99763.89
2022-11-23T12:55:43.554Z,99762.27
2022-11-23T12:59:11.314Z,99758.66
2022-11-23T13:03:07.973Z,99763.08
2022-11-23T13:07:12.414Z,99765.80
2022-11-23T13:10:21.624Z,99769.87
2022-11-23T13:14:12.560Z,99766.66
2022-11-23T13:17:53.049Z,99768.08
2022-11-23T13:21:45.268Z,99771.87
2022-11-23T13:25:10.173Z,99772.34
2022-11-23T13:28:32.930Z,99775.70
2022-11-23T13:32:35.616Z,99774.13
2022-11-23T13:35:52.735Z,99772.02
2022-11-23T13:39:44.522Z,99770.89
2022-11-23T13:43:34.213Z,99776.44
2022-11-23T13:47:18.667Z,99775.80
2022-11-23T13:50:30.629Z,99778.58
2022-11-23T13:54:22.556Z,99779.08
2022-11-23T13:58:06.199Z,99780.81
2022-11-23T14:02:00.910Z,99787.83
2022-11-23T14:05:57.298Z,99783.48
2022-11-23T14:09:24.432Z,99780.48
2022-11-23T14:13:01.900Z,99780.79
2022-11-23T14:16:54.437Z,99787.27
2022-11-23T14:20:12.407Z,99789.00
2022-11-23T14:24:14.160Z,99796.55
2022-11-23T14:27:49.394Z,99798.48
2022-11-23T14:31:28.312Z,99806.60
2022-11-23T14:35:27.337Z,99805.23
2022-11-23T14:38:55.776Z,99805.95
2022-11-23T14:42:18.766Z,99805.55
2022-11-23T14:45:53.452Z,99805.84
2022-11-23T14:49:31.030Z,99808.26
2022-11-23T14:53:11.304Z,99815.53
2022-11-23T14:56:48.686Z,99818.85
2022-11-23T15:00:35.811Z,99820.74
2022-11-23T15:04:23.292Z,99822.74
2022-11-23T15:07:49.121Z,99819.33
2022-11-23T15:11:29.028Z,99824.34
2022-11-23T15:14:59.872Z,99826.14
2022-11-23T15:18:35.476Z,99830.02
2022-11-23T15:22:18.452Z,99833.23
2022-11-23T15:25:52.503Z,99836.14
2022-11-23T15:29:53.770Z,99836.86
2022-11-23T15:33:11.723Z,99839.19
2022-11-23T15:36:43.296Z,99838.10
2022-11-23T15:40:19.806Z,99832.00
2022-11-23T15:43:59.863Z,99830.70
2022-11-23T15:47:38.305Z,99832.25
2022-11-23T15:51:24.999Z,99829.08
2022-11-23T15:54:50.216Z,99824.94
2022-11-23T15:58:28.890Z,99821.56
2022-11-23T16:02:13.343Z,99823.05
2022-11-23T16:05:43.530Z,99822.77
2022-11-23T16:09:53.778Z,99824.11
2022-11-23T16:13:06.616Z,99821.67
2022-11-23T16:16:46.006Z,99819.70
2022-11-23T16:20:23.765Z,99819.17
2022-11-23T16:23:58.192Z,99818.45
2022-11-23T16:27:36.642Z,99819.15
2022-11-23T16:31:37.600Z,99819.34
2022-11-23T16:34:50.382Z,99820.83
2022-11-23T16:38:28.089Z,99822.03
2022-11-23T16:42:05.793Z,99825.55
2022-11-23T16:45:49.389Z,99832.96
2022-11-23T16:49:23.555Z,99835.07
2022-11-23T16:53:13.189Z,99833.19
2022-11-23T16:56:37.119Z,99838.27
2022-11-23T17:00:17.486Z,99836.60
2022-11-23T17:03:59.183Z,99838.92
2022-11-23T17:07:29.993Z,99847.70
2022-11-23T17:11:24.299Z,99847.75
2022-11-23T17:14:48.309Z,99844.09
2022-11-23T17:18:22.833Z,99845.80
2022-11-23T17:22:03.006Z,99841.16
2022-11-23T17:25:39.271Z,99837.94
2022-11-23T17:29:19.773Z,99830.73
2022-11-23T17:32:54.469Z,99833.53
2022-11-23T17:36:32.011Z,99835.25
2022-11-23T17:40:18.029Z,99836.20
2022-11-23T17:43:46.588Z,99841.88
2022-11-23T17:47:30.002Z,99834.95
2022-11-23T17:51:01.968Z,99833.48
2022-11-23T17:54:42.334Z,99838.97
2022-11-23T17:58:17.374Z,99831.65
2022-11-23T18:01:55.305Z,99834.64
2022-11-23T18:05:33.196Z,99835.17
2022-11-23T18:09:12.842Z,99831.60
2022-11-23T18:12:48.405Z,99834.13
2022-11-23T18:16:26.347Z,99836.89
2022-11-23T18:20:08.476Z,99840.92
2022-11-23T18:23:42.841Z,99841.78
2022-11-23T18:27:19.423Z,99838.63
2022-11-23T18:30:59.462Z,99842.86
2022-11-23T18:34:35.619Z,99846.42
2022-11-23T18:38:12.120Z,99848.75
2022-11-23T18:41:50.045Z,99847.09
2022-11-23T18:45:28.865Z,99847.05
2022-11-23T18:49:05.672Z,99842.24
2022-11-23T18:52:46.076Z,99839.02
2022-11-23T18:56:21.289Z,99844.66
2022-11-23T19:00:01.341Z,99847.67
2022-11-23T19:03:37.754Z,99855.86
2022-11-23T19:07:13.873Z,99859.99
2022-11-23T19:10:51.970Z,99860.97
2022-11-23T19:15:03.046Z,99864.89
2022-11-23T19:18:28.344Z,99866.91
2022-11-23T19:22:05.487Z,99869.99
2022-11-23T19:25:47.070Z,99874.25
2022-11-23T19:29:09.555Z,99868.33
2022-11-23T19:32:46.795Z,99865.48
2022-11-23T19:36:25.628Z,99868.72
2022-11-23T19:44:13.671Z,99874.85
2022-11-23T19:47:51.356Z,99872.61
2022-11-23T19:51:21.390Z,99878.72
2022-11-23T19:55:03.376Z,99879.73
2022-11-23T19:58:43.011Z,99881.98
2022-11-23T20:02:23.298Z,99883.17
2022-11-23T20:05:59.647Z,99887.50
2022-11-23T20:09:28.082Z,99887.79
2022-11-23T20:13:07.740Z,99892.35
2022-11-23T20:21:19.004Z,99894.95
2022-11-23T20:24:54.101Z,99903.89
2022-11-23T20:29:00.212Z,99911.42
2022-11-23T20:32:25.011Z,99917.29
2022-11-23T20:36:16.208Z,99913.81
2022-11-23T20:39:27.637Z,99910.98
2022-11-23T20:43:05.256Z,99911.73
2022-11-23T20:50:25.450Z,99914.83
2022-11-23T20:53:59.888Z,99908.00
2022-11-23T20:57:41.028Z,99905.05
2022-11-23T21:01:17.360Z,99901.11
2022-11-23T21:05:12.629Z,99906.90
2022-11-23T21:08:34.654Z,99910.10
2022-11-23T21:12:27.792Z,99914.04
2022-11-23T21:15:45.715Z,99916.05
2022-11-23T21:19:24.526Z,99919.17
2022-11-23T21:23:00.788Z,99918.77
2022-11-23T21:26:44.787Z,99918.19
2022-11-23T21:30:16.499Z,99921.29
2022-11-23T21:33:56.742Z,99924.80
2022-11-23T21:37:35.376Z,99929.95
2022-11-23T21:41:17.195Z,99936.88
2022-11-23T21:44:46.065Z,99941.68
2022-11-23T21:48:23.872Z,99939.20
2022-11-23T21:52:01.474Z,99939.74
2022-11-23T21:55:39.178Z,99942.61
2022-11-23T21:59:16.883Z,99941.86
2022-11-23T22:02:54.793Z,99939.44
2022-11-23T22:06:32.292Z,99944.59
2022-11-23T22:10:10.097Z,99950.00
2022-11-23T22:13:48.827Z,99950.64
2022-11-23T22:17:25.404Z,99949.73
2022-11-23T22:21:04.752Z,99952.05
2022-11-23T22:24:40.711Z,99950.84
2022-11-23T22:28:19.027Z,99959.50
2022-11-23T22:31:56.388Z,99960.91
2022-11-23T22:35:33.924Z,99964.61
2022-11-23T22:39:11.848Z,99969.63
2022-11-23T22:42:49.233Z,99968.56
2022-11-23T22:46:27.392Z,99972.72
2022-11-23T22:50:05.292Z,99969.33
2022-11-23T22:53:44.487Z,99970.48
2022-11-23T22:57:20.601Z,99976.02
2022-11-23T23:01:04.604Z,99985.08
2022-11-23T23:04:35.537Z,99985.27
2022-11-23T23:08:13.917Z,99982.14
2022-11-23T23:11:50.698Z,99985.33
2022-11-23T23:15:28.608Z,99992.75
2022-11-23T23:19:06.925Z,99986.54
2022-11-23T23:22:43.918Z,99978.89
2022-11-23T23:26:24.964Z,99977.27
2022-11-23T23:30:00.041Z,99972.68
2022-11-23T23:33:37.540Z,99975.02
2022-11-23T23:37:14.731Z,99978.88
2022-11-23T23:40:55.485Z,99982.96
2022-11-23T23:44:30.263Z,99978.52
2022-11-23T23:48:07.739Z,99972.36
2022-11-23T23:51:50.113Z,99967.12
2022-11-23T23:55:23.250Z,99967.14
2022-11-23T23:59:01.056Z,99965.20
